sensor_id;sensor_type;location;lat;lon;timestamp;P1;durP1;ratioP1;P2;durP2;ratioP2
23175;SDS011;19910;42.652;23.332;2023-03-31T00:01:05;8.38;;;3.33;;
23175;SDS011;19910;42.652;23.332;2023-03-31T00:03:32;5.72;;;2.92;;
23175;SDS011;19910;42.652;23.332;2023-03-31T00:06:03;6.00;;;3.42;;
23175;SDS011;19910;42.652;23.332;2023-03-31T00:08:30;5.18;;;3.13;;
23175;SDS011;19910;42.652;23.332;2023-03-31T00:11:00;7.70;;;3.35;;
23175;SDS011;19910;42.652;23.332;2023-03-31T00:13:28;4.68;;;2.60;;
23175;SDS011;19910;42.652;23.332;2023-03-31T00:15:57;5.93;;;2.85;;
23175;SDS011;19910;42.652;23.332;2023-03-31T00:18:24;5.05;;;2.38;;
23175;SDS011;19910;42.652;23.332;2023-03-31T00:20:51;6.40;;;2.67;;
23175;SDS011;19910;42.652;23.332;2023-03-31T00:23:19;7.13;;;2.78;;
23175;SDS011;19910;42.652;23.332;2023-03-31T00:25:52;4.15;;;2.35;;
23175;SDS011;19910;42.652;23.332;2023-03-31T00:28:20;6.22;;;2.40;;
23175;SDS011;19910;42.652;23.332;2023-03-31T00:30:47;7.18;;;2.63;;
23175;SDS011;19910;42.652;23.332;2023-03-31T00:33:15;6.63;;;2.72;;
23175;SDS011;19910;42.652;23.332;2023-03-31T00:35:41;6.15;;;2.80;;
23175;SDS011;19910;42.652;23.332;2023-03-31T00:38:10;5.50;;;2.67;;
23175;SDS011;19910;42.652;23.332;2023-03-31T00:40:43;9.52;;;2.95;;
23175;SDS011;19910;42.652;23.332;2023-03-31T00:43:19;8.50;;;3.20;;
23175;SDS011;19910;42.652;23.332;2023-03-31T00:46:03;4.03;;;2.05;;
23175;SDS011;19910;42.652;23.332;2023-03-31T00:48:41;6.03;;;2.35;;
23175;SDS011;19910;42.652;23.332;2023-03-31T00:51:12;2.70;;;1.98;;
23175;SDS011;19910;42.652;23.332;2023-03-31T00:53:40;3.22;;;2.33;;
23175;SDS011;19910;42.652;23.332;2023-03-31T00:56:08;5.18;;;2.40;;
23175;SDS011;19910;42.652;23.332;2023-03-31T00:58:38;6.88;;;2.85;;
23175;SDS011;19910;42.652;23.332;2023-03-31T01:01:09;4.82;;;2.72;;
23175;SDS011;19910;42.652;23.332;2023-03-31T01:03:41;5.50;;;2.50;;
23175;SDS011;19910;42.652;23.332;2023-03-31T01:06:10;6.65;;;2.47;;
23175;SDS011;19910;42.652;23.332;2023-03-31T01:08:39;5.65;;;2.58;;
23175;SDS011;19910;42.652;23.332;2023-03-31T01:11:08;4.30;;;2.03;;
23175;SDS011;19910;42.652;23.332;2023-03-31T01:13:38;6.72;;;3.13;;
23175;SDS011;19910;42.652;23.332;2023-03-31T01:16:06;8.50;;;2.78;;
23175;SDS011;19910;42.652;23.332;2023-03-31T01:18:32;4.70;;;2.70;;
23175;SDS011;19910;42.652;23.332;2023-03-31T01:24:10;10.95;;;4.47;;
23175;SDS011;19910;42.652;23.332;2023-03-31T01:27:11;9.45;;;3.88;;
23175;SDS011;19910;42.652;23.332;2023-03-31T01:30:00;8.82;;;3.90;;
23175;SDS011;19910;42.652;23.332;2023-03-31T01:32:56;8.35;;;4.13;;
23175;SDS011;19910;42.652;23.332;2023-03-31T01:38:58;10.88;;;4.07;;
23175;SDS011;19910;42.652;23.332;2023-03-31T01:41:49;11.38;;;4.50;;
23175;SDS011;19910;42.652;23.332;2023-03-31T01:44:29;9.85;;;3.60;;
23175;SDS011;19910;42.652;23.332;2023-03-31T01:47:06;8.77;;;3.90;;
23175;SDS011;19910;42.652;23.332;2023-03-31T01:49:38;11.68;;;4.07;;
23175;SDS011;19910;42.652;23.332;2023-03-31T01:52:11;12.90;;;5.25;;
23175;SDS011;19910;42.652;23.332;2023-03-31T01:54:47;9.23;;;3.63;;
23175;SDS011;19910;42.652;23.332;2023-03-31T01:57:19;11.15;;;3.75;;
23175;SDS011;19910;42.652;23.332;2023-03-31T01:59:51;10.82;;;3.58;;
23175;SDS011;19910;42.652;23.332;2023-03-31T02:02:26;9.13;;;2.58;;
23175;SDS011;19910;42.652;23.332;2023-03-31T02:04:56;5.70;;;3.35;;
23175;SDS011;19910;42.652;23.332;2023-03-31T02:07:28;8.60;;;3.33;;
23175;SDS011;19910;42.652;23.332;2023-03-31T02:09:59;10.02;;;3.55;;
23175;SDS011;19910;42.652;23.332;2023-03-31T02:12:31;9.32;;;4.10;;
23175;SDS011;19910;42.652;23.332;2023-03-31T02:15:02;9.10;;;4.13;;
23175;SDS011;19910;42.652;23.332;2023-03-31T02:17:33;10.07;;;4.25;;
23175;SDS011;19910;42.652;23.332;2023-03-31T02:20:05;9.82;;;3.97;;
23175;SDS011;19910;42.652;23.332;2023-03-31T02:22:37;13.85;;;4.45;;
23175;SDS011;19910;42.652;23.332;2023-03-31T02:25:07;9.07;;;3.72;;
23175;SDS011;19910;42.652;23.332;2023-03-31T02:27:38;10.30;;;4.13;;
23175;SDS011;19910;42.652;23.332;2023-03-31T02:30:07;11.93;;;6.13;;
23175;SDS011;19910;42.652;23.332;2023-03-31T02:32:36;16.83;;;5.03;;
23175;SDS011;19910;42.652;23.332;2023-03-31T02:35:04;16.58;;;5.30;;
23175;SDS011;19910;42.652;23.332;2023-03-31T02:37:33;10.50;;;5.47;;
23175;SDS011;19910;42.652;23.332;2023-03-31T02:40:00;10.63;;;4.38;;
23175;SDS011;19910;42.652;23.332;2023-03-31T02:42:34;5.57;;;2.60;;
23175;SDS011;19910;42.652;23.332;2023-03-31T02:45:04;8.57;;;2.70;;
23175;SDS011;19910;42.652;23.332;2023-03-31T02:47:33;10.90;;;4.25;;
23175;SDS011;19910;42.652;23.332;2023-03-31T02:50:00;7.05;;;3.03;;
23175;SDS011;19910;42.652;23.332;2023-03-31T02:52:33;3.95;;;2.38;;
23175;SDS011;19910;42.652;23.332;2023-03-31T02:55:23;2.90;;;1.48;;
23175;SDS011;19910;42.652;23.332;2023-03-31T02:58:07;2.60;;;1.40;;
23175;SDS011;19910;42.652;23.332;2023-03-31T03:00:52;1.77;;;0.98;;
23175;SDS011;19910;42.652;23.332;2023-03-31T03:03:33;4.50;;;1.27;;
23175;SDS011;19910;42.652;23.332;2023-03-31T03:06:10;1.25;;;0.73;;
23175;SDS011;19910;42.652;23.332;2023-03-31T03:08:52;1.30;;;0.90;;
23175;SDS011;19910;42.652;23.332;2023-03-31T03:11:36;1.95;;;1.20;;
23175;SDS011;19910;42.652;23.332;2023-03-31T03:14:12;4.80;;;1.42;;
23175;SDS011;19910;42.652;23.332;2023-03-31T03:16:46;1.25;;;1.15;;
23175;SDS011;19910;42.652;23.332;2023-03-31T03:19:17;1.50;;;1.33;;
23175;SDS011;19910;42.652;23.332;2023-03-31T03:21:45;4.10;;;1.85;;
23175;SDS011;19910;42.652;23.332;2023-03-31T03:24:12;2.53;;;0.95;;
23175;SDS011;19910;42.652;23.332;2023-03-31T03:26:41;1.40;;;1.15;;
23175;SDS011;19910;42.652;23.332;2023-03-31T03:29:08;3.22;;;1.35;;
23175;SDS011;19910;42.652;23.332;2023-03-31T03:31:37;1.67;;;1.10;;
23175;SDS011;19910;42.652;23.332;2023-03-31T03:34:05;1.60;;;1.45;;
23175;SDS011;19910;42.652;23.332;2023-03-31T03:36:33;4.13;;;1.65;;
23175;SDS011;19910;42.652;23.332;2023-03-31T03:39:01;2.03;;;1.05;;
23175;SDS011;19910;42.652;23.332;2023-03-31T03:41:29;1.70;;;1.30;;
23175;SDS011;19910;42.652;23.332;2023-03-31T03:43:57;3.05;;;1.52;;
23175;SDS011;19910;42.652;23.332;2023-03-31T03:46:24;3.70;;;1.45;;
23175;SDS011;19910;42.652;23.332;2023-03-31T03:48:51;2.10;;;1.50;;
23175;SDS011;19910;42.652;23.332;2023-03-31T03:51:19;1.20;;;1.00;;
23175;SDS011;19910;42.652;23.332;2023-03-31T03:53:46;2.42;;;1.65;;
23175;SDS011;19910;42.652;23.332;2023-03-31T03:56:13;2.28;;;1.52;;
23175;SDS011;19910;42.652;23.332;2023-03-31T03:58:39;5.75;;;2.33;;
23175;SDS011;19910;42.652;23.332;2023-03-31T04:01:06;3.22;;;1.92;;
23175;SDS011;19910;42.652;23.332;2023-03-31T04:03:33;9.43;;;1.92;;
23175;SDS011;19910;42.652;23.332;2023-03-31T04:06:00;6.75;;;2.75;;
23175;SDS011;19910;42.652;23.332;2023-03-31T04:08:28;5.60;;;2.25;;
23175;SDS011;19910;42.652;23.332;2023-03-31T04:10:55;3.45;;;2.25;;
23175;SDS011;19910;42.652;23.332;2023-03-31T04:13:21;5.90;;;2.63;;
23175;SDS011;19910;42.652;23.332;2023-03-31T04:15:48;5.95;;;2.17;;
23175;SDS011;19910;42.652;23.332;2023-03-31T04:18:15;6.10;;;2.42;;
23175;SDS011;19910;42.652;23.332;2023-03-31T04:20:47;5.50;;;3.40;;
23175;SDS011;19910;42.652;23.332;2023-03-31T04:23:19;5.00;;;2.95;;
23175;SDS011;19910;42.652;23.332;2023-03-31T04:25:49;7.60;;;3.30;;
23175;SDS011;19910;42.652;23.332;2023-03-31T04:28:16;6.88;;;3.50;;
23175;SDS011;19910;42.652;23.332;2023-03-31T04:30:44;6.53;;;3.42;;
23175;SDS011;19910;42.652;23.332;2023-03-31T04:33:11;7.07;;;3.67;;
23175;SDS011;19910;42.652;23.332;2023-03-31T04:35:40;6.75;;;3.78;;
23175;SDS011;19910;42.652;23.332;2023-03-31T04:38:17;7.32;;;3.45;;
23175;SDS011;19910;42.652;23.332;2023-03-31T04:40:45;5.82;;;3.10;;
23175;SDS011;19910;42.652;23.332;2023-03-31T04:43:14;5.30;;;2.95;;
23175;SDS011;19910;42.652;23.332;2023-03-31T04:45:41;6.53;;;3.28;;
23175;SDS011;19910;42.652;23.332;2023-03-31T04:48:09;5.25;;;3.33;;
23175;SDS011;19910;42.652;23.332;2023-03-31T04:50:36;8.80;;;4.50;;
23175;SDS011;19910;42.652;23.332;2023-03-31T04:53:03;9.38;;;5.32;;
23175;SDS011;19910;42.652;23.332;2023-03-31T04:55:31;18.45;;;6.57;;
23175;SDS011;19910;42.652;23.332;2023-03-31T04:57:58;13.75;;;3.80;;
23175;SDS011;19910;42.652;23.332;2023-03-31T05:00:26;13.38;;;5.50;;
23175;SDS011;19910;42.652;23.332;2023-03-31T05:02:53;9.63;;;3.75;;
23175;SDS011;19910;42.652;23.332;2023-03-31T05:05:20;7.38;;;2.65;;
23175;SDS011;19910;42.652;23.332;2023-03-31T05:07:46;5.78;;;2.92;;
23175;SDS011;19910;42.652;23.332;2023-03-31T05:10:13;3.88;;;2.60;;
23175;SDS011;19910;42.652;23.332;2023-03-31T05:12:40;2.40;;;1.65;;
23175;SDS011;19910;42.652;23.332;2023-03-31T05:15:07;10.07;;;3.53;;
23175;SDS011;19910;42.652;23.332;2023-03-31T05:17:36;7.45;;;3.90;;
23175;SDS011;19910;42.652;23.332;2023-03-31T05:20:03;4.72;;;2.10;;
23175;SDS011;19910;42.652;23.332;2023-03-31T05:22:33;14.95;;;6.88;;
23175;SDS011;19910;42.652;23.332;2023-03-31T05:25:01;7.57;;;2.85;;
23175;SDS011;19910;42.652;23.332;2023-03-31T05:27:28;7.90;;;3.22;;
23175;SDS011;19910;42.652;23.332;2023-03-31T05:29:55;7.20;;;2.75;;
23175;SDS011;19910;42.652;23.332;2023-03-31T05:32:22;11.30;;;5.15;;
23175;SDS011;19910;42.652;23.332;2023-03-31T05:34:50;6.35;;;3.30;;
23175;SDS011;19910;42.652;23.332;2023-03-31T05:37:21;10.60;;;3.33;;
23175;SDS011;19910;42.652;23.332;2023-03-31T05:39:48;7.60;;;2.53;;
23175;SDS011;19910;42.652;23.332;2023-03-31T05:42:17;9.73;;;3.00;;
23175;SDS011;19910;42.652;23.332;2023-03-31T05:44:44;6.00;;;3.55;;
23175;SDS011;19910;42.652;23.332;2023-03-31T05:47:11;10.88;;;5.15;;
23175;SDS011;19910;42.652;23.332;2023-03-31T05:49:38;7.10;;;5.03;;
23175;SDS011;19910;42.652;23.332;2023-03-31T05:52:06;5.22;;;2.20;;
23175;SDS011;19910;42.652;23.332;2023-03-31T05:54:33;9.70;;;5.30;;
23175;SDS011;19910;42.652;23.332;2023-03-31T05:57:00;7.50;;;3.53;;
23175;SDS011;19910;42.652;23.332;2023-03-31T05:59:27;10.45;;;4.60;;
23175;SDS011;19910;42.652;23.332;2023-03-31T06:01:54;6.30;;;3.40;;
23175;SDS011;19910;42.652;23.332;2023-03-31T06:04:22;12.60;;;4.00;;
23175;SDS011;19910;42.652;23.332;2023-03-31T06:06:49;6.97;;;3.50;;
23175;SDS011;19910;42.652;23.332;2023-03-31T06:09:17;14.10;;;3.80;;
23175;SDS011;19910;42.652;23.332;2023-03-31T06:11:45;8.25;;;4.00;;
23175;SDS011;19910;42.652;23.332;2023-03-31T06:14:12;9.35;;;3.60;;
23175;SDS011;19910;42.652;23.332;2023-03-31T06:16:39;10.00;;;4.07;;
23175;SDS011;19910;42.652;23.332;2023-03-31T06:19:06;11.85;;;6.55;;
23175;SDS011;19910;42.652;23.332;2023-03-31T06:21:33;9.77;;;5.82;;
23175;SDS011;19910;42.652;23.332;2023-03-31T06:24:00;11.75;;;6.38;;
23175;SDS011;19910;42.652;23.332;2023-03-31T06:26:28;16.33;;;7.47;;
23175;SDS011;19910;42.652;23.332;2023-03-31T06:28:54;9.95;;;5.60;;
23175;SDS011;19910;42.652;23.332;2023-03-31T06:31:22;11.00;;;5.53;;
23175;SDS011;19910;42.652;23.332;2023-03-31T06:33:50;12.05;;;4.47;;
23175;SDS011;19910;42.652;23.332;2023-03-31T06:36:18;12.23;;;5.95;;
23175;SDS011;19910;42.652;23.332;2023-03-31T06:38:47;8.38;;;4.93;;
23175;SDS011;19910;42.652;23.332;2023-03-31T06:41:15;6.95;;;3.92;;
23175;SDS011;19910;42.652;23.332;2023-03-31T06:43:46;7.90;;;4.07;;
23175;SDS011;19910;42.652;23.332;2023-03-31T06:46:13;9.27;;;5.30;;
23175;SDS011;19910;42.652;23.332;2023-03-31T06:48:40;19.30;;;8.77;;
23175;SDS011;19910;42.652;23.332;2023-03-31T06:51:07;16.08;;;5.53;;
23175;SDS011;19910;42.652;23.332;2023-03-31T06:53:34;13.13;;;5.32;;
23175;SDS011;19910;42.652;23.332;2023-03-31T06:56:01;12.93;;;5.25;;
23175;SDS011;19910;42.652;23.332;2023-03-31T06:58:28;11.52;;;4.75;;
23175;SDS011;19910;42.652;23.332;2023-03-31T07:00:56;13.80;;;6.85;;
23175;SDS011;19910;42.652;23.332;2023-03-31T07:03:23;15.05;;;6.50;;
23175;SDS011;19910;42.652;23.332;2023-03-31T07:05:53;13.88;;;4.88;;
23175;SDS011;19910;42.652;23.332;2023-03-31T07:08:21;15.13;;;4.65;;
23175;SDS011;19910;42.652;23.332;2023-03-31T07:10:48;6.55;;;3.92;;
23175;SDS011;19910;42.652;23.332;2023-03-31T07:13:19;9.50;;;4.00;;
23175;SDS011;19910;42.652;23.332;2023-03-31T07:15:46;5.57;;;3.33;;
23175;SDS011;19910;42.652;23.332;2023-03-31T07:18:15;10.13;;;4.45;;
23175;SDS011;19910;42.652;23.332;2023-03-31T07:20:43;13.27;;;5.82;;
23175;SDS011;19910;42.652;23.332;2023-03-31T07:23:12;9.77;;;5.45;;
23175;SDS011;19910;42.652;23.332;2023-03-31T07:25:42;14.05;;;4.28;;
23175;SDS011;19910;42.652;23.332;2023-03-31T07:28:09;14.05;;;5.55;;
23175;SDS011;19910;42.652;23.332;2023-03-31T07:30:36;13.77;;;5.13;;
23175;SDS011;19910;42.652;23.332;2023-03-31T07:33:04;6.75;;;4.47;;
23175;SDS011;19910;42.652;23.332;2023-03-31T07:35:32;11.27;;;3.00;;
23175;SDS011;19910;42.652;23.332;2023-03-31T07:38:02;11.20;;;3.75;;
23175;SDS011;19910;42.652;23.332;2023-03-31T07:40:29;6.25;;;3.20;;
23175;SDS011;19910;42.652;23.332;2023-03-31T07:42:55;7.10;;;2.97;;
23175;SDS011;19910;42.652;23.332;2023-03-31T07:45:23;7.05;;;3.30;;
23175;SDS011;19910;42.652;23.332;2023-03-31T07:47:51;7.60;;;3.65;;
23175;SDS011;19910;42.652;23.332;2023-03-31T07:50:18;4.25;;;3.45;;
23175;SDS011;19910;42.652;23.332;2023-03-31T07:52:46;11.40;;;3.55;;
23175;SDS011;19910;42.652;23.332;2023-03-31T07:55:13;8.73;;;3.35;;
23175;SDS011;19910;42.652;23.332;2023-03-31T07:57:41;8.23;;;3.85;;
23175;SDS011;19910;42.652;23.332;2023-03-31T08:00:10;9.32;;;3.85;;
23175;SDS011;19910;42.652;23.332;2023-03-31T08:02:38;9.32;;;3.90;;
23175;SDS011;19910;42.652;23.332;2023-03-31T08:05:07;5.35;;;3.28;;
23175;SDS011;19910;42.652;23.332;2023-03-31T08:07:35;5.95;;;2.88;;
23175;SDS011;19910;42.652;23.332;2023-03-31T08:10:05;6.38;;;2.95;;
23175;SDS011;19910;42.652;23.332;2023-03-31T08:12:35;7.65;;;3.10;;
23175;SDS011;19910;42.652;23.332;2023-03-31T08:15:02;5.75;;;2.60;;
23175;SDS011;19910;42.652;23.332;2023-03-31T08:17:29;4.93;;;2.22;;
23175;SDS011;19910;42.652;23.332;2023-03-31T08:19:56;6.22;;;2.53;;
23175;SDS011;19910;42.652;23.332;2023-03-31T08:22:22;10.73;;;2.47;;
23175;SDS011;19910;42.652;23.332;2023-03-31T08:24:49;7.05;;;2.60;;
23175;SDS011;19910;42.652;23.332;2023-03-31T08:27:17;4.22;;;2.10;;
23175;SDS011;19910;42.652;23.332;2023-03-31T08:29:44;6.05;;;2.30;;
23175;SDS011;19910;42.652;23.332;2023-03-31T08:32:11;4.35;;;2.20;;
23175;SDS011;19910;42.652;23.332;2023-03-31T08:34:37;6.75;;;2.30;;
23175;SDS011;19910;42.652;23.332;2023-03-31T08:37:06;9.00;;;2.83;;
23175;SDS011;19910;42.652;23.332;2023-03-31T08:39:33;5.75;;;1.90;;
23175;SDS011;19910;42.652;23.332;2023-03-31T08:42:01;8.07;;;2.45;;
23175;SDS011;19910;42.652;23.332;2023-03-31T08:44:34;3.38;;;2.17;;
23175;SDS011;19910;42.652;23.332;2023-03-31T08:47:09;5.88;;;1.83;;
23175;SDS011;19910;42.652;23.332;2023-03-31T08:49:42;4.50;;;1.63;;
23175;SDS011;19910;42.652;23.332;2023-03-31T08:52:12;12.43;;;2.17;;
23175;SDS011;19910;42.652;23.332;2023-03-31T08:54:42;2.53;;;2.05;;
23175;SDS011;19910;42.652;23.332;2023-03-31T08:57:14;2.85;;;1.95;;
23175;SDS011;19910;42.652;23.332;2023-03-31T08:59:46;3.17;;;1.90;;
23175;SDS011;19910;42.652;23.332;2023-03-31T09:02:17;6.88;;;2.60;;
23175;SDS011;19910;42.652;23.332;2023-03-31T09:05:03;4.32;;;2.15;;
23175;SDS011;19910;42.652;23.332;2023-03-31T09:07:50;11.40;;;2.28;;
23175;SDS011;19910;42.652;23.332;2023-03-31T09:10:29;4.93;;;1.98;;
23175;SDS011;19910;42.652;23.332;2023-03-31T09:13:01;3.45;;;1.75;;
23175;SDS011;19910;42.652;23.332;2023-03-31T09:15:44;2.78;;;1.70;;
23175;SDS011;19910;42.652;23.332;2023-03-31T09:18:17;10.93;;;2.13;;
23175;SDS011;19910;42.652;23.332;2023-03-31T09:20:52;5.57;;;1.52;;
23175;SDS011;19910;42.652;23.332;2023-03-31T09:23:25;3.22;;;1.75;;
23175;SDS011;19910;42.652;23.332;2023-03-31T09:25:55;5.15;;;1.95;;
23175;SDS011;19910;42.652;23.332;2023-03-31T09:28:25;5.82;;;1.60;;
23175;SDS011;19910;42.652;23.332;2023-03-31T09:30:57;2.58;;;1.13;;
23175;SDS011;19910;42.652;23.332;2023-03-31T09:33:25;4.65;;;1.48;;
23175;SDS011;19910;42.652;23.332;2023-03-31T09:35:56;2.65;;;1.73;;
23175;SDS011;19910;42.652;23.332;2023-03-31T09:38:23;6.38;;;1.80;;
23175;SDS011;19910;42.652;23.332;2023-03-31T09:40:53;3.88;;;1.80;;
23175;SDS011;19910;42.652;23.332;2023-03-31T09:43:21;5.65;;;1.67;;
23175;SDS011;19910;42.652;23.332;2023-03-31T09:45:49;7.45;;;1.80;;
23175;SDS011;19910;42.652;23.332;2023-03-31T09:48:19;6.82;;;2.10;;
23175;SDS011;19910;42.652;23.332;2023-03-31T09:50:49;4.85;;;1.98;;
23175;SDS011;19910;42.652;23.332;2023-03-31T09:53:24;5.45;;;1.95;;
23175;SDS011;19910;42.652;23.332;2023-03-31T09:55:59;3.20;;;1.73;;
23175;SDS011;19910;42.652;23.332;2023-03-31T09:58:27;5.97;;;2.03;;
23175;SDS011;19910;42.652;23.332;2023-03-31T10:00:55;6.05;;;2.00;;
23175;SDS011;19910;42.652;23.332;2023-03-31T10:03:26;5.10;;;1.95;;
23175;SDS011;19910;42.652;23.332;2023-03-31T10:06:00;6.60;;;1.42;;
23175;SDS011;19910;42.652;23.332;2023-03-31T10:08:29;4.72;;;1.65;;
23175;SDS011;19910;42.652;23.332;2023-03-31T10:11:05;4.60;;;1.55;;
23175;SDS011;19910;42.652;23.332;2023-03-31T10:13:37;6.43;;;1.80;;
23175;SDS011;19910;42.652;23.332;2023-03-31T10:16:11;3.47;;;1.77;;
23175;SDS011;19910;42.652;23.332;2023-03-31T10:18:47;6.30;;;2.00;;
23175;SDS011;19910;42.652;23.332;2023-03-31T10:21:17;6.95;;;2.10;;
23175;SDS011;19910;42.652;23.332;2023-03-31T10:23:48;10.00;;;2.03;;
23175;SDS011;19910;42.652;23.332;2023-03-31T10:26:16;8.88;;;3.88;;
23175;SDS011;19910;42.652;23.332;2023-03-31T10:28:46;8.30;;;1.77;;
23175;SDS011;19910;42.652;23.332;2023-03-31T10:31:14;6.43;;;1.73;;
23175;SDS011;19910;42.652;23.332;2023-03-31T10:33:43;10.98;;;2.30;;
23175;SDS011;19910;42.652;23.332;2023-03-31T10:36:16;4.05;;;1.95;;
23175;SDS011;19910;42.652;23.332;2023-03-31T10:38:47;8.45;;;1.85;;
23175;SDS011;19910;42.652;23.332;2023-03-31T10:41:17;3.80;;;1.85;;
23175;SDS011;19910;42.652;23.332;2023-03-31T10:43:47;4.88;;;2.22;;
23175;SDS011;19910;42.652;23.332;2023-03-31T10:46:16;4.32;;;1.80;;
23175;SDS011;19910;42.652;23.332;2023-03-31T10:48:43;5.93;;;2.00;;
23175;SDS011;19910;42.652;23.332;2023-03-31T10:51:11;4.32;;;1.80;;
23175;SDS011;19910;42.652;23.332;2023-03-31T10:53:42;4.95;;;1.50;;
23175;SDS011;19910;42.652;23.332;2023-03-31T11:02:18;4.25;;;1.70;;
23175;SDS011;19910;42.652;23.332;2023-03-31T11:05:06;3.45;;;1.70;;
23175;SDS011;19910;42.652;23.332;2023-03-31T11:07:47;4.28;;;1.90;;
23175;SDS011;19910;42.652;23.332;2023-03-31T11:10:27;4.75;;;1.60;;
23175;SDS011;19910;42.652;23.332;2023-03-31T11:13:02;4.50;;;2.00;;
23175;SDS011;19910;42.652;23.332;2023-03-31T11:15:36;3.20;;;2.03;;
23175;SDS011;19910;42.652;23.332;2023-03-31T11:18:13;4.70;;;1.60;;
23175;SDS011;19910;42.652;23.332;2023-03-31T11:20:59;4.53;;;2.80;;
23175;SDS011;19910;42.652;23.332;2023-03-31T11:23:36;4.50;;;1.88;;
23175;SDS011;19910;42.652;23.332;2023-03-31T11:26:08;5.45;;;2.20;;
23175;SDS011;19910;42.652;23.332;2023-03-31T11:28:44;6.90;;;1.65;;
23175;SDS011;19910;42.652;23.332;2023-03-31T11:31:31;4.75;;;1.83;;
23175;SDS011;19910;42.652;23.332;2023-03-31T11:34:21;2.85;;;1.60;;
23175;SDS011;19910;42.652;23.332;2023-03-31T11:37:11;4.90;;;1.90;;
23175;SDS011;19910;42.652;23.332;2023-03-31T11:39:48;3.20;;;1.60;;
23175;SDS011;19910;42.652;23.332;2023-03-31T11:42:25;3.15;;;1.65;;
23175;SDS011;19910;42.652;23.332;2023-03-31T11:44:55;4.00;;;1.90;;
23175;SDS011;19910;42.652;23.332;2023-03-31T11:47:29;6.22;;;1.95;;
23175;SDS011;19910;42.652;23.332;2023-03-31T11:50:02;9.45;;;2.28;;
23175;SDS011;19910;42.652;23.332;2023-03-31T11:52:36;7.45;;;2.10;;
23175;SDS011;19910;42.652;23.332;2023-03-31T11:55:11;4.53;;;2.22;;
23175;SDS011;19910;42.652;23.332;2023-03-31T11:57:44;3.95;;;1.90;;
23175;SDS011;19910;42.652;23.332;2023-03-31T12:00:17;4.18;;;2.30;;
23175;SDS011;19910;42.652;23.332;2023-03-31T12:02:47;2.13;;;1.73;;
23175;SDS011;19910;42.652;23.332;2023-03-31T12:05:19;6.05;;;2.28;;
23175;SDS011;19910;42.652;23.332;2023-03-31T12:07:51;4.47;;;1.75;;
23175;SDS011;19910;42.652;23.332;2023-03-31T12:10:28;3.95;;;1.85;;
23175;SDS011;19910;42.652;23.332;2023-03-31T12:13:04;3.40;;;1.35;;
23175;SDS011;19910;42.652;23.332;2023-03-31T12:15:56;4.65;;;2.15;;
23175;SDS011;19910;42.652;23.332;2023-03-31T12:18:28;3.72;;;1.77;;
23175;SDS011;19910;42.652;23.332;2023-03-31T12:21:01;3.35;;;1.48;;
23175;SDS011;19910;42.652;23.332;2023-03-31T12:23:33;2.80;;;1.45;;
23175;SDS011;19910;42.652;23.332;2023-03-31T12:26:05;7.95;;;1.83;;
23175;SDS011;19910;42.652;23.332;2023-03-31T12:28:41;5.32;;;1.63;;
23175;SDS011;19910;42.652;23.332;2023-03-31T12:31:12;7.00;;;1.90;;
23175;SDS011;19910;42.652;23.332;2023-03-31T12:33:45;5.53;;;1.70;;
23175;SDS011;19910;42.652;23.332;2023-03-31T12:36:20;5.78;;;1.77;;
23175;SDS011;19910;42.652;23.332;2023-03-31T12:39:00;3.80;;;2.00;;
23175;SDS011;19910;42.652;23.332;2023-03-31T12:41:39;6.47;;;2.00;;
23175;SDS011;19910;42.652;23.332;2023-03-31T12:44:25;4.35;;;1.73;;
23175;SDS011;19910;42.652;23.332;2023-03-31T12:50:13;5.30;;;1.95;;
23175;SDS011;19910;42.652;23.332;2023-03-31T12:52:54;3.67;;;1.80;;
23175;SDS011;19910;42.652;23.332;2023-03-31T12:55:35;6.57;;;1.75;;
23175;SDS011;19910;42.652;23.332;2023-03-31T12:58:34;3.67;;;1.98;;
23175;SDS011;19910;42.652;23.332;2023-03-31T13:01:06;4.15;;;1.70;;
23175;SDS011;19910;42.652;23.332;2023-03-31T13:03:42;5.00;;;1.73;;
23175;SDS011;19910;42.652;23.332;2023-03-31T13:12:12;4.70;;;1.58;;
23175;SDS011;19910;42.652;23.332;2023-03-31T13:14:41;6.68;;;1.90;;
23175;SDS011;19910;42.652;23.332;2023-03-31T13:17:12;5.70;;;1.70;;
23175;SDS011;19910;42.652;23.332;2023-03-31T13:19:47;2.60;;;1.58;;
23175;SDS011;19910;42.652;23.332;2023-03-31T13:22:28;2.58;;;1.48;;
23175;SDS011;19910;42.652;23.332;2023-03-31T13:28:07;4.55;;;1.77;;
23175;SDS011;19910;42.652;23.332;2023-03-31T13:30:45;7.60;;;2.08;;
23175;SDS011;19910;42.652;23.332;2023-03-31T13:33:19;4.70;;;1.80;;
23175;SDS011;19910;42.652;23.332;2023-03-31T13:35:50;4.97;;;1.83;;
23175;SDS011;19910;42.652;23.332;2023-03-31T13:38:25;6.97;;;1.92;;
23175;SDS011;19910;42.652;23.332;2023-03-31T13:41:09;8.05;;;1.63;;
23175;SDS011;19910;42.652;23.332;2023-03-31T13:43:59;5.93;;;1.90;;
23175;SDS011;19910;42.652;23.332;2023-03-31T13:49:56;3.75;;;1.80;;
23175;SDS011;19910;42.652;23.332;2023-03-31T13:52:41;4.28;;;1.50;;
23175;SDS011;19910;42.652;23.332;2023-03-31T13:55:19;4.85;;;2.17;;
23175;SDS011;19910;42.652;23.332;2023-03-31T14:04:11;4.25;;;1.50;;
23175;SDS011;19910;42.652;23.332;2023-03-31T14:06:55;4.15;;;2.00;;
23175;SDS011;19910;42.652;23.332;2023-03-31T14:09:27;5.75;;;1.90;;
23175;SDS011;19910;42.652;23.332;2023-03-31T14:11:57;4.85;;;1.92;;
23175;SDS011;19910;42.652;23.332;2023-03-31T14:14:24;3.92;;;1.73;;
23175;SDS011;19910;42.652;23.332;2023-03-31T14:16:51;6.40;;;1.92;;
23175;SDS011;19910;42.652;23.332;2023-03-31T14:19:28;5.65;;;2.00;;
23175;SDS011;19910;42.652;23.332;2023-03-31T14:22:10;6.60;;;1.80;;
23175;SDS011;19910;42.652;23.332;2023-03-31T14:24:43;3.05;;;1.73;;
23175;SDS011;19910;42.652;23.332;2023-03-31T14:27:20;6.03;;;1.77;;
23175;SDS011;19910;42.652;23.332;2023-03-31T14:30:04;4.32;;;1.77;;
23175;SDS011;19910;42.652;23.332;2023-03-31T14:32:42;3.45;;;1.58;;
23175;SDS011;19910;42.652;23.332;2023-03-31T14:35:22;4.22;;;1.50;;
23175;SDS011;19910;42.652;23.332;2023-03-31T14:37:55;4.20;;;1.70;;
23175;SDS011;19910;42.652;23.332;2023-03-31T14:40:22;5.60;;;1.88;;
23175;SDS011;19910;42.652;23.332;2023-03-31T14:42:50;6.05;;;1.70;;
23175;SDS011;19910;42.652;23.332;2023-03-31T14:45:18;6.80;;;2.60;;
23175;SDS011;19910;42.652;23.332;2023-03-31T14:47:52;9.52;;;4.65;;
23175;SDS011;19910;42.652;23.332;2023-03-31T14:50:20;8.07;;;3.50;;
23175;SDS011;19910;42.652;23.332;2023-03-31T14:52:47;6.70;;;2.53;;
23175;SDS011;19910;42.652;23.332;2023-03-31T14:55:21;7.70;;;2.38;;
23175;SDS011;19910;42.652;23.332;2023-03-31T14:57:50;3.38;;;1.85;;
23175;SDS011;19910;42.652;23.332;2023-03-31T15:00:19;6.75;;;1.75;;
23175;SDS011;19910;42.652;23.332;2023-03-31T15:02:50;6.35;;;2.00;;
23175;SDS011;19910;42.652;23.332;2023-03-31T15:05:19;6.70;;;2.10;;
23175;SDS011;19910;42.652;23.332;2023-03-31T15:07:50;8.55;;;1.83;;
23175;SDS011;19910;42.652;23.332;2023-03-31T15:10:19;8.02;;;1.98;;
23175;SDS011;19910;42.652;23.332;2023-03-31T15:12:47;3.97;;;1.70;;
23175;SDS011;19910;42.652;23.332;2023-03-31T15:15:15;5.60;;;2.17;;
23175;SDS011;19910;42.652;23.332;2023-03-31T15:17:43;3.25;;;1.63;;
23175;SDS011;19910;42.652;23.332;2023-03-31T15:20:20;4.97;;;2.00;;
23175;SDS011;19910;42.652;23.332;2023-03-31T15:22:52;5.28;;;1.65;;
23175;SDS011;19910;42.652;23.332;2023-03-31T15:25:20;6.38;;;1.90;;
23175;SDS011;19910;42.652;23.332;2023-03-31T15:27:51;11.13;;;2.08;;
23175;SDS011;19910;42.652;23.332;2023-03-31T15:30:23;4.20;;;1.92;;
23175;SDS011;19910;42.652;23.332;2023-03-31T15:32:52;6.47;;;2.00;;